sensor_id;sensor_type;location;lat;lon;timestamp;P1;durP1;ratioP1;P2;durP2;ratioP2
55539;SDS011;41384;51.418;7.286;2023-08-07T00:01:48;2.63;;;1.08;;
55539;SDS011;41384;51.418;7.286;2023-08-07T00:04:13;1.73;;;0.80;;
55539;SDS011;41384;51.418;7.286;2023-08-07T00:06:39;1.23;;;1.00;;
55539;SDS011;41384;51.418;7.286;2023-08-07T00:09:04;1.23;;;0.90;;
55539;SDS011;41384;51.418;7.286;2023-08-07T00:11:29;1.17;;;0.70;;
55539;SDS011;41384;51.418;7.286;2023-08-07T00:13:55;1.25;;;0.50;;
55539;SDS011;41384;51.418;7.286;2023-08-07T00:16:20;0.70;;;0.70;;
55539;SDS011;41384;51.418;7.286;2023-08-07T00:18:45;1.60;;;0.80;;
55539;SDS011;41384;51.418;7.286;2023-08-07T00:21:11;0.70;;;0.70;;
55539;SDS011;41384;51.418;7.286;2023-08-07T00:23:37;1.23;;;0.52;;
55539;SDS011;41384;51.418;7.286;2023-08-07T00:26:02;1.15;;;0.70;;
55539;SDS011;41384;51.418;7.286;2023-08-07T00:28:27;1.27;;;0.90;;
55539;SDS011;41384;51.418;7.286;2023-08-07T00:30:54;1.13;;;0.90;;
55539;SDS011;41384;51.418;7.286;2023-08-07T00:33:20;3.13;;;1.08;;
55539;SDS011;41384;51.418;7.286;2023-08-07T00:35:45;2.50;;;1.02;;
55539;SDS011;41384;51.418;7.286;2023-08-07T00:38:10;1.95;;;1.10;;
55539;SDS011;41384;51.418;7.286;2023-08-07T00:40:36;1.95;;;1.10;;
55539;SDS011;41384;51.418;7.286;2023-08-07T00:43:03;2.03;;;1.33;;
55539;SDS011;41384;51.418;7.286;2023-08-07T00:45:28;2.25;;;2.03;;
55539;SDS011;41384;51.418;7.286;2023-08-07T00:47:54;4.05;;;1.70;;
55539;SDS011;41384;51.418;7.286;2023-08-07T00:50:19;4.50;;;2.30;;
55539;SDS011;41384;51.418;7.286;2023-08-07T00:52:44;3.50;;;2.88;;
55539;SDS011;41384;51.418;7.286;2023-08-07T00:55:10;4.68;;;2.60;;
55539;SDS011;41384;51.418;7.286;2023-08-07T00:57:35;4.80;;;2.80;;
55539;SDS011;41384;51.418;7.286;2023-08-07T01:00:01;6.05;;;3.20;;
55539;SDS011;41384;51.418;7.286;2023-08-07T01:02:27;4.88;;;3.00;;
55539;SDS011;41384;51.418;7.286;2023-08-07T01:04:53;4.97;;;2.92;;
55539;SDS011;41384;51.418;7.286;2023-08-07T01:07:18;4.57;;;3.45;;
55539;SDS011;41384;51.418;7.286;2023-08-07T01:09:43;6.30;;;3.95;;
55539;SDS011;41384;51.418;7.286;2023-08-07T01:12:22;5.53;;;2.92;;
55539;SDS011;41384;51.418;7.286;2023-08-07T01:14:55;4.07;;;2.50;;
55539;SDS011;41384;51.418;7.286;2023-08-07T01:17:23;4.32;;;2.65;;
55539;SDS011;41384;51.418;7.286;2023-08-07T01:19:52;3.83;;;2.10;;
55539;SDS011;41384;51.418;7.286;2023-08-07T01:22:18;3.38;;;2.35;;
55539;SDS011;41384;51.418;7.286;2023-08-07T01:24:45;5.95;;;2.20;;
55539;SDS011;41384;51.418;7.286;2023-08-07T01:29:54;3.22;;;2.42;;
55539;SDS011;41384;51.418;7.286;2023-08-07T01:32:41;4.78;;;2.30;;
55539;SDS011;41384;51.418;7.286;2023-08-07T01:35:34;5.50;;;2.22;;
55539;SDS011;41384;51.418;7.286;2023-08-07T01:38:05;3.97;;;2.10;;
55539;SDS011;41384;51.418;7.286;2023-08-07T01:40:31;5.20;;;2.90;;
55539;SDS011;41384;51.418;7.286;2023-08-07T01:42:57;3.17;;;2.63;;
55539;SDS011;41384;51.418;7.286;2023-08-07T01:45:26;2.85;;;2.38;;
55539;SDS011;41384;51.418;7.286;2023-08-07T01:47:53;6.63;;;2.88;;
55539;SDS011;41384;51.418;7.286;2023-08-07T01:50:19;7.75;;;2.85;;
55539;SDS011;41384;51.418;7.286;2023-08-07T01:52:45;4.18;;;2.28;;
55539;SDS011;41384;51.418;7.286;2023-08-07T01:55:12;3.65;;;1.98;;
55539;SDS011;41384;51.418;7.286;2023-08-07T01:57:38;6.68;;;2.40;;
55539;SDS011;41384;51.418;7.286;2023-08-07T02:00:03;5.25;;;2.00;;
55539;SDS011;41384;51.418;7.286;2023-08-07T02:02:29;3.50;;;2.08;;
55539;SDS011;41384;51.418;7.286;2023-08-07T02:04:54;3.80;;;1.80;;
55539;SDS011;41384;51.418;7.286;2023-08-07T02:07:20;3.65;;;1.75;;
55539;SDS011;41384;51.418;7.286;2023-08-07T02:09:45;3.13;;;1.50;;
55539;SDS011;41384;51.418;7.286;2023-08-07T02:12:10;7.15;;;1.80;;
55539;SDS011;41384;51.418;7.286;2023-08-07T02:14:35;2.22;;;1.25;;
55539;SDS011;41384;51.418;7.286;2023-08-07T02:17:01;2.03;;;1.23;;
55539;SDS011;41384;51.418;7.286;2023-08-07T02:19:26;1.60;;;0.90;;
55539;SDS011;41384;51.418;7.286;2023-08-07T02:21:51;2.92;;;1.30;;
55539;SDS011;41384;51.418;7.286;2023-08-07T02:24:17;2.25;;;1.17;;
55539;SDS011;41384;51.418;7.286;2023-08-07T02:26:43;1.95;;;0.90;;
55539;SDS011;41384;51.418;7.286;2023-08-07T02:29:09;1.58;;;0.85;;
55539;SDS011;41384;51.418;7.286;2023-08-07T02:31:34;1.15;;;0.98;;
55539;SDS011;41384;51.418;7.286;2023-08-07T02:33:59;1.98;;;1.00;;
55539;SDS011;41384;51.418;7.286;2023-08-07T02:36:25;1.70;;;1.08;;
55539;SDS011;41384;51.418;7.286;2023-08-07T02:38:50;2.05;;;0.90;;
55539;SDS011;41384;51.418;7.286;2023-08-07T02:41:15;1.15;;;0.90;;
55539;SDS011;41384;51.418;7.286;2023-08-07T02:43:40;3.25;;;1.00;;
55539;SDS011;41384;51.418;7.286;2023-08-07T02:46:06;2.90;;;0.70;;
55539;SDS011;41384;51.418;7.286;2023-08-07T02:48:31;1.75;;;0.70;;
55539;SDS011;41384;51.418;7.286;2023-08-07T02:50:56;0.85;;;0.60;;
55539;SDS011;41384;51.418;7.286;2023-08-07T02:53:22;2.33;;;1.15;;
55539;SDS011;41384;51.418;7.286;2023-08-07T02:55:47;1.27;;;0.82;;
55539;SDS011;41384;51.418;7.286;2023-08-07T02:58:12;1.05;;;0.75;;
55539;SDS011;41384;51.418;7.286;2023-08-07T03:00:37;1.30;;;1.00;;
55539;SDS011;41384;51.418;7.286;2023-08-07T03:03:03;2.67;;;1.10;;
55539;SDS011;41384;51.418;7.286;2023-08-07T03:05:28;2.25;;;1.20;;
55539;SDS011;41384;51.418;7.286;2023-08-07T03:07:54;1.80;;;1.15;;
55539;SDS011;41384;51.418;7.286;2023-08-07T03:10:19;2.63;;;1.30;;
55539;SDS011;41384;51.418;7.286;2023-08-07T03:12:44;1.85;;;1.35;;
55539;SDS011;41384;51.418;7.286;2023-08-07T03:15:10;2.50;;;1.50;;
55539;SDS011;41384;51.418;7.286;2023-08-07T03:17:35;3.30;;;1.50;;
55539;SDS011;41384;51.418;7.286;2023-08-07T03:20:00;2.92;;;1.67;;
55539;SDS011;41384;51.418;7.286;2023-08-07T03:22:26;4.07;;;1.60;;
55539;SDS011;41384;51.418;7.286;2023-08-07T03:24:51;2.17;;;1.70;;
55539;SDS011;41384;51.418;7.286;2023-08-07T03:27:16;3.25;;;1.35;;
55539;SDS011;41384;51.418;7.286;2023-08-07T03:29:42;4.63;;;1.40;;
55539;SDS011;41384;51.418;7.286;2023-08-07T03:32:08;3.67;;;1.10;;
55539;SDS011;41384;51.418;7.286;2023-08-07T03:34:33;3.45;;;0.98;;
55539;SDS011;41384;51.418;7.286;2023-08-07T03:36:59;3.55;;;1.30;;
55539;SDS011;41384;51.418;7.286;2023-08-07T03:39:24;3.28;;;1.63;;
55539;SDS011;41384;51.418;7.286;2023-08-07T03:41:50;2.70;;;1.65;;
55539;SDS011;41384;51.418;7.286;2023-08-07T03:44:15;5.75;;;2.45;;
55539;SDS011;41384;51.418;7.286;2023-08-07T03:46:40;4.50;;;2.72;;
55539;SDS011;41384;51.418;7.286;2023-08-07T03:49:05;6.45;;;2.35;;
55539;SDS011;41384;51.418;7.286;2023-08-07T03:51:31;4.40;;;2.30;;
55539;SDS011;41384;51.418;7.286;2023-08-07T03:53:57;4.38;;;2.75;;
55539;SDS011;41384;51.418;7.286;2023-08-07T03:56:22;4.68;;;2.53;;
55539;SDS011;41384;51.418;7.286;2023-08-07T03:58:47;6.78;;;3.10;;
55539;SDS011;41384;51.418;7.286;2023-08-07T04:01:15;7.03;;;3.28;;
55539;SDS011;41384;51.418;7.286;2023-08-07T04:03:40;6.05;;;3.60;;
55539;SDS011;41384;51.418;7.286;2023-08-07T04:06:05;6.72;;;3.67;;
55539;SDS011;41384;51.418;7.286;2023-08-07T04:08:31;6.90;;;3.20;;
55539;SDS011;41384;51.418;7.286;2023-08-07T04:11:03;8.15;;;3.85;;
55539;SDS011;41384;51.418;7.286;2023-08-07T04:13:29;9.88;;;3.65;;
55539;SDS011;41384;51.418;7.286;2023-08-07T04:15:56;6.50;;;3.60;;
55539;SDS011;41384;51.418;7.286;2023-08-07T04:18:21;7.60;;;3.40;;
55539;SDS011;41384;51.418;7.286;2023-08-07T04:20:50;6.40;;;3.53;;
55539;SDS011;41384;51.418;7.286;2023-08-07T04:23:17;7.00;;;3.45;;
55539;SDS011;41384;51.418;7.286;2023-08-07T04:25:42;8.10;;;3.53;;
55539;SDS011;41384;51.418;7.286;2023-08-07T04:28:08;10.10;;;3.75;;
55539;SDS011;41384;51.418;7.286;2023-08-07T04:30:34;8.18;;;3.92;;
55539;SDS011;41384;51.418;7.286;2023-08-07T04:32:59;9.82;;;3.88;;
55539;SDS011;41384;51.418;7.286;2023-08-07T04:35:24;8.85;;;3.75;;
55539;SDS011;41384;51.418;7.286;2023-08-07T04:37:49;6.80;;;3.72;;
55539;SDS011;41384;51.418;7.286;2023-08-07T04:40:15;10.48;;;3.63;;
55539;SDS011;41384;51.418;7.286;2023-08-07T04:42:40;10.65;;;4.53;;
55539;SDS011;41384;51.418;7.286;2023-08-07T04:45:05;12.20;;;4.20;;
55539;SDS011;41384;51.418;7.286;2023-08-07T04:47:31;7.93;;;4.13;;
55539;SDS011;41384;51.418;7.286;2023-08-07T04:49:56;10.77;;;4.47;;
55539;SDS011;41384;51.418;7.286;2023-08-07T04:52:21;6.07;;;3.30;;
55539;SDS011;41384;51.418;7.286;2023-08-07T04:54:47;7.13;;;4.05;;
55539;SDS011;41384;51.418;7.286;2023-08-07T04:57:12;8.32;;;3.50;;
55539;SDS011;41384;51.418;7.286;2023-08-07T04:59:37;7.43;;;3.30;;
55539;SDS011;41384;51.418;7.286;2023-08-07T05:02:02;11.25;;;4.68;;
55539;SDS011;41384;51.418;7.286;2023-08-07T05:04:28;9.18;;;3.72;;
55539;SDS011;41384;51.418;7.286;2023-08-07T05:06:53;10.20;;;3.90;;
55539;SDS011;41384;51.418;7.286;2023-08-07T05:09:19;8.55;;;3.20;;
55539;SDS011;41384;51.418;7.286;2023-08-07T05:11:44;3.80;;;2.45;;
55539;SDS011;41384;51.418;7.286;2023-08-07T05:14:09;7.53;;;3.30;;
55539;SDS011;41384;51.418;7.286;2023-08-07T05:16:35;6.07;;;3.05;;
55539;SDS011;41384;51.418;7.286;2023-08-07T05:19:00;8.77;;;2.50;;
55539;SDS011;41384;51.418;7.286;2023-08-07T05:21:25;7.15;;;2.65;;
55539;SDS011;41384;51.418;7.286;2023-08-07T05:23:51;7.95;;;2.13;;
55539;SDS011;41384;51.418;7.286;2023-08-07T05:26:20;3.92;;;1.52;;
55539;SDS011;41384;51.418;7.286;2023-08-07T05:28:45;6.43;;;2.00;;
55539;SDS011;41384;51.418;7.286;2023-08-07T05:31:10;9.50;;;2.10;;
55539;SDS011;41384;51.418;7.286;2023-08-07T05:33:36;3.85;;;1.60;;
55539;SDS011;41384;51.418;7.286;2023-08-07T05:36:01;3.92;;;1.55;;
55539;SDS011;41384;51.418;7.286;2023-08-07T05:38:26;4.50;;;1.50;;
55539;SDS011;41384;51.418;7.286;2023-08-07T05:40:52;6.47;;;1.58;;
55539;SDS011;41384;51.418;7.286;2023-08-07T05:43:17;2.72;;;1.30;;
55539;SDS011;41384;51.418;7.286;2023-08-07T05:45:42;4.28;;;1.42;;
55539;SDS011;41384;51.418;7.286;2023-08-07T05:48:09;3.33;;;1.50;;
55539;SDS011;41384;51.418;7.286;2023-08-07T05:50:35;4.60;;;1.77;;
55539;SDS011;41384;51.418;7.286;2023-08-07T05:53:00;4.88;;;1.40;;
55539;SDS011;41384;51.418;7.286;2023-08-07T05:55:25;5.32;;;1.50;;
55539;SDS011;41384;51.418;7.286;2023-08-07T05:57:51;3.53;;;1.77;;
55539;SDS011;41384;51.418;7.286;2023-08-07T06:00:16;3.47;;;1.63;;
55539;SDS011;41384;51.418;7.286;2023-08-07T06:02:42;3.20;;;1.10;;
55539;SDS011;41384;51.418;7.286;2023-08-07T06:05:08;3.58;;;1.35;;
55539;SDS011;41384;51.418;7.286;2023-08-07T06:07:34;4.65;;;1.35;;
55539;SDS011;41384;51.418;7.286;2023-08-07T06:09:59;2.90;;;1.15;;
55539;SDS011;41384;51.418;7.286;2023-08-07T06:12:25;3.25;;;1.30;;
55539;SDS011;41384;51.418;7.286;2023-08-07T06:14:50;1.77;;;1.10;;
55539;SDS011;41384;51.418;7.286;2023-08-07T06:17:15;3.58;;;2.08;;
55539;SDS011;41384;51.418;7.286;2023-08-07T06:19:41;3.05;;;1.40;;
55539;SDS011;41384;51.418;7.286;2023-08-07T06:22:06;2.58;;;1.55;;
55539;SDS011;41384;51.418;7.286;2023-08-07T06:24:31;2.25;;;1.15;;
55539;SDS011;41384;51.418;7.286;2023-08-07T06:26:57;2.17;;;1.30;;
55539;SDS011;41384;51.418;7.286;2023-08-07T06:29:22;3.42;;;1.40;;
55539;SDS011;41384;51.418;7.286;2023-08-07T06:31:47;5.35;;;1.42;;
55539;SDS011;41384;51.418;7.286;2023-08-07T06:34:12;3.10;;;1.30;;
55539;SDS011;41384;51.418;7.286;2023-08-07T06:36:38;4.13;;;1.15;;
55539;SDS011;41384;51.418;7.286;2023-08-07T06:39:03;4.72;;;1.40;;
55539;SDS011;41384;51.418;7.286;2023-08-07T06:41:29;3.65;;;1.60;;
55539;SDS011;41384;51.418;7.286;2023-08-07T06:43:54;3.33;;;1.65;;
55539;SDS011;41384;51.418;7.286;2023-08-07T06:46:19;2.65;;;1.58;;
55539;SDS011;41384;51.418;7.286;2023-08-07T06:48:49;3.90;;;1.63;;
55539;SDS011;41384;51.418;7.286;2023-08-07T06:51:14;2.92;;;1.67;;
55539;SDS011;41384;51.418;7.286;2023-08-07T06:53:41;2.97;;;1.50;;
55539;SDS011;41384;51.418;7.286;2023-08-07T06:56:07;2.90;;;1.85;;
55539;SDS011;41384;51.418;7.286;2023-08-07T06:58:32;5.50;;;2.50;;
55539;SDS011;41384;51.418;7.286;2023-08-07T07:00:57;3.13;;;1.88;;
55539;SDS011;41384;51.418;7.286;2023-08-07T07:03:23;5.18;;;2.65;;
55539;SDS011;41384;51.418;7.286;2023-08-07T07:05:49;3.85;;;2.25;;
55539;SDS011;41384;51.418;7.286;2023-08-07T07:08:14;3.28;;;2.03;;
55539;SDS011;41384;51.418;7.286;2023-08-07T07:10:40;5.47;;;2.40;;
55539;SDS011;41384;51.418;7.286;2023-08-07T07:13:05;2.97;;;2.20;;
55539;SDS011;41384;51.418;7.286;2023-08-07T07:15:32;3.58;;;2.22;;
55539;SDS011;41384;51.418;7.286;2023-08-07T07:17:58;4.50;;;2.45;;
55539;SDS011;41384;51.418;7.286;2023-08-07T07:20:24;3.78;;;2.42;;
55539;SDS011;41384;51.418;7.286;2023-08-07T07:22:49;3.47;;;2.30;;
55539;SDS011;41384;51.418;7.286;2023-08-07T07:25:14;4.35;;;2.47;;
55539;SDS011;41384;51.418;7.286;2023-08-07T07:27:40;5.03;;;2.72;;
55539;SDS011;41384;51.418;7.286;2023-08-07T07:30:05;4.78;;;2.60;;
55539;SDS011;41384;51.418;7.286;2023-08-07T07:32:32;2.88;;;2.13;;
55539;SDS011;41384;51.418;7.286;2023-08-07T07:34:57;3.42;;;2.80;;
55539;SDS011;41384;51.418;7.286;2023-08-07T07:37:23;4.78;;;2.30;;
55539;SDS011;41384;51.418;7.286;2023-08-07T07:39:48;6.60;;;2.72;;
55539;SDS011;41384;51.418;7.286;2023-08-07T07:42:13;5.00;;;2.45;;
55539;SDS011;41384;51.418;7.286;2023-08-07T07:44:38;4.32;;;2.50;;
55539;SDS011;41384;51.418;7.286;2023-08-07T07:47:04;4.60;;;2.03;;
55539;SDS011;41384;51.418;7.286;2023-08-07T07:49:31;3.38;;;2.20;;
55539;SDS011;41384;51.418;7.286;2023-08-07T07:51:57;6.13;;;2.42;;
55539;SDS011;41384;51.418;7.286;2023-08-07T07:54:23;4.25;;;1.80;;
55539;SDS011;41384;51.418;7.286;2023-08-07T07:56:48;5.53;;;2.15;;
55539;SDS011;41384;51.418;7.286;2023-08-07T07:59:13;3.00;;;1.90;;
55539;SDS011;41384;51.418;7.286;2023-08-07T08:01:39;3.55;;;1.85;;
55539;SDS011;41384;51.418;7.286;2023-08-07T08:04:04;5.47;;;2.00;;
55539;SDS011;41384;51.418;7.286;2023-08-07T08:06:31;3.65;;;1.90;;
55539;SDS011;41384;51.418;7.286;2023-08-07T08:08:56;3.05;;;2.28;;
55539;SDS011;41384;51.418;7.286;2023-08-07T08:11:21;5.03;;;2.15;;
55539;SDS011;41384;51.418;7.286;2023-08-07T08:13:47;3.97;;;2.40;;
55539;SDS011;41384;51.418;7.286;2023-08-07T08:16:12;4.10;;;2.70;;
55539;SDS011;41384;51.418;7.286;2023-08-07T08:18:38;4.45;;;2.53;;
55539;SDS011;41384;51.418;7.286;2023-08-07T08:21:03;3.78;;;2.40;;
55539;SDS011;41384;51.418;7.286;2023-08-07T08:23:28;3.15;;;2.08;;
55539;SDS011;41384;51.418;7.286;2023-08-07T08:25:54;4.45;;;2.70;;
55539;SDS011;41384;51.418;7.286;2023-08-07T08:28:19;4.50;;;2.08;;
55539;SDS011;41384;51.418;7.286;2023-08-07T08:30:44;3.42;;;2.20;;
55539;SDS011;41384;51.418;7.286;2023-08-07T08:33:10;3.78;;;2.10;;
55539;SDS011;41384;51.418;7.286;2023-08-07T08:35:38;5.50;;;2.35;;
55539;SDS011;41384;51.418;7.286;2023-08-07T08:38:03;3.70;;;1.65;;
55539;SDS011;41384;51.418;7.286;2023-08-07T08:40:29;2.92;;;1.73;;
55539;SDS011;41384;51.418;7.286;2023-08-07T08:42:59;3.50;;;1.85;;
55539;SDS011;41384;51.418;7.286;2023-08-07T08:45:26;2.80;;;1.50;;
55539;SDS011;41384;51.418;7.286;2023-08-07T08:47:52;3.88;;;1.15;;
55539;SDS011;41384;51.418;7.286;2023-08-07T08:50:20;5.03;;;1.77;;
55539;SDS011;41384;51.418;7.286;2023-08-07T08:52:46;3.97;;;1.60;;
55539;SDS011;41384;51.418;7.286;2023-08-07T08:55:12;3.60;;;1.30;;
55539;SDS011;41384;51.418;7.286;2023-08-07T08:57:38;5.50;;;1.63;;
55539;SDS011;41384;51.418;7.286;2023-08-07T09:00:05;3.80;;;1.60;;
55539;SDS011;41384;51.418;7.286;2023-08-07T09:02:43;3.17;;;1.67;;
55539;SDS011;41384;51.418;7.286;2023-08-07T09:05:13;5.57;;;1.98;;
55539;SDS011;41384;51.418;7.286;2023-08-07T09:07:40;7.35;;;1.85;;
55539;SDS011;41384;51.418;7.286;2023-08-07T09:10:05;4.95;;;2.65;;
55539;SDS011;41384;51.418;7.286;2023-08-07T09:12:32;4.07;;;2.20;;
55539;SDS011;41384;51.418;7.286;2023-08-07T09:14:58;4.20;;;2.40;;
55539;SDS011;41384;51.418;7.286;2023-08-07T09:17:27;5.63;;;2.30;;
55539;SDS011;41384;51.418;7.286;2023-08-07T09:19:54;3.90;;;2.25;;
55539;SDS011;41384;51.418;7.286;2023-08-07T09:22:19;7.78;;;2.92;;
55539;SDS011;41384;51.418;7.286;2023-08-07T09:24:45;4.88;;;2.40;;
55539;SDS011;41384;51.418;7.286;2023-08-07T09:27:10;8.40;;;2.80;;
55539;SDS011;41384;51.418;7.286;2023-08-07T09:29:36;5.53;;;3.05;;
55539;SDS011;41384;51.418;7.286;2023-08-07T09:32:13;4.85;;;2.67;;
55539;SDS011;41384;51.418;7.286;2023-08-07T09:34:39;6.47;;;2.45;;
55539;SDS011;41384;51.418;7.286;2023-08-07T09:37:05;5.28;;;2.53;;
55539;SDS011;41384;51.418;7.286;2023-08-07T09:39:32;8.88;;;3.30;;
55539;SDS011;41384;51.418;7.286;2023-08-07T09:41:57;8.07;;;3.35;;
55539;SDS011;41384;51.418;7.286;2023-08-07T09:44:23;5.40;;;2.50;;
55539;SDS011;41384;51.418;7.286;2023-08-07T09:46:48;7.43;;;3.28;;
55539;SDS011;41384;51.418;7.286;2023-08-07T09:49:13;5.53;;;2.75;;
55539;SDS011;41384;51.418;7.286;2023-08-07T09:51:45;6.55;;;2.33;;
55539;SDS011;41384;51.418;7.286;2023-08-07T09:54:12;8.48;;;3.38;;
55539;SDS011;41384;51.418;7.286;2023-08-07T09:56:38;8.85;;;2.60;;
55539;SDS011;41384;51.418;7.286;2023-08-07T09:59:05;5.68;;;2.33;;
55539;SDS011;41384;51.418;7.286;2023-08-07T10:01:31;6.55;;;2.33;;
55539;SDS011;41384;51.418;7.286;2023-08-07T10:03:57;5.43;;;2.42;;
55539;SDS011;41384;51.418;7.286;2023-08-07T10:06:22;7.22;;;2.63;;
55539;SDS011;41384;51.418;7.286;2023-08-07T10:08:48;4.97;;;2.33;;
55539;SDS011;41384;51.418;7.286;2023-08-07T10:11:14;4.95;;;2.40;;
55539;SDS011;41384;51.418;7.286;2023-08-07T10:13:40;6.65;;;2.08;;
55539;SDS011;41384;51.418;7.286;2023-08-07T10:16:06;5.78;;;2.08;;
55539;SDS011;41384;51.418;7.286;2023-08-07T10:18:32;5.57;;;1.90;;
55539;SDS011;41384;51.418;7.286;2023-08-07T10:20:58;4.75;;;1.73;;
55539;SDS011;41384;51.418;7.286;2023-08-07T10:23:26;2.97;;;1.70;;
55539;SDS011;41384;51.418;7.286;2023-08-07T10:25:51;5.07;;;1.90;;
55539;SDS011;41384;51.418;7.286;2023-08-07T10:28:18;3.90;;;1.73;;
55539;SDS011;41384;51.418;7.286;2023-08-07T10:30:45;4.32;;;2.10;;
55539;SDS011;41384;51.418;7.286;2023-08-07T10:33:11;7.00;;;2.70;;
55539;SDS011;41384;51.418;7.286;2023-08-07T10:35:43;7.90;;;2.40;;
55539;SDS011;41384;51.418;7.286;2023-08-07T10:38:14;5.60;;;2.33;;
55539;SDS011;41384;51.418;7.286;2023-08-07T10:40:58;6.35;;;1.88;;
55539;SDS011;41384;51.418;7.286;2023-08-07T10:43:26;8.27;;;2.17;;
55539;SDS011;41384;51.418;7.286;2023-08-07T10:45:52;7.47;;;2.28;;
55539;SDS011;41384;51.418;7.286;2023-08-07T10:48:18;5.78;;;2.05;;
55539;SDS011;41384;51.418;7.286;2023-08-07T10:53:19;8.43;;;2.40;;
55539;SDS011;41384;51.418;7.286;2023-08-07T10:55:47;7.63;;;2.72;;
55539;SDS011;41384;51.418;7.286;2023-08-07T10:58:25;8.20;;;2.55;;
55539;SDS011;41384;51.418;7.286;2023-08-07T11:03:44;7.65;;;1.90;;
55539;SDS011;41384;51.418;7.286;2023-08-07T11:06:09;3.15;;;2.03;;
55539;SDS011;41384;51.418;7.286;2023-08-07T11:08:35;10.63;;;2.40;;
55539;SDS011;41384;51.418;7.286;2023-08-07T11:11:05;5.47;;;2.13;;
55539;SDS011;41384;51.418;7.286;2023-08-07T11:13:32;5.47;;;1.98;;
55539;SDS011;41384;51.418;7.286;2023-08-07T11:15:58;3.78;;;1.65;;
55539;SDS011;41384;51.418;7.286;2023-08-07T11:18:24;3.47;;;1.60;;
55539;SDS011;41384;51.418;7.286;2023-08-07T11:20:50;7.18;;;1.90;;
55539;SDS011;41384;51.418;7.286;2023-08-07T11:23:15;2.88;;;1.35;;
55539;SDS011;41384;51.418;7.286;2023-08-07T11:25:41;6.55;;;2.00;;
55539;SDS011;41384;51.418;7.286;2023-08-07T11:28:06;4.55;;;1.35;;
55539;SDS011;41384;51.418;7.286;2023-08-07T11:30:33;3.08;;;1.58;;
55539;SDS011;41384;51.418;7.286;2023-08-07T11:33:00;5.20;;;1.98;;
55539;SDS011;41384;51.418;7.286;2023-08-07T11:35:25;5.60;;;1.73;;
55539;SDS011;41384;51.418;7.286;2023-08-07T11:37:51;4.68;;;2.13;;
55539;SDS011;41384;51.418;7.286;2023-08-07T11:40:19;4.90;;;1.80;;
55539;SDS011;41384;51.418;7.286;2023-08-07T11:42:44;3.70;;;1.65;;
55539;SDS011;41384;51.418;7.286;2023-08-07T11:45:09;6.95;;;2.03;;
55539;SDS011;41384;51.418;7.286;2023-08-07T11:47:35;6.25;;;2.25;;
55539;SDS011;41384;51.418;7.286;2023-08-07T11:50:01;5.18;;;1.90;;
55539;SDS011;41384;51.418;7.286;2023-08-07T11:52:27;3.90;;;1.73;;
55539;SDS011;41384;51.418;7.286;2023-08-07T11:54:52;6.93;;;1.90;;
55539;SDS011;41384;51.418;7.286;2023-08-07T11:57:19;6.68;;;1.58;;
55539;SDS011;41384;51.418;7.286;2023-08-07T11:59:49;6.80;;;1.77;;
55539;SDS011;41384;51.418;7.286;2023-08-07T12:02:15;2.65;;;1.63;;
55539;SDS011;41384;51.418;7.286;2023-08-07T12:04:41;4.78;;;1.55;;
55539;SDS011;41384;51.418;7.286;2023-08-07T12:07:06;4.38;;;1.52;;
55539;SDS011;41384;51.418;7.286;2023-08-07T12:09:35;4.00;;;1.45;;
55539;SDS011;41384;51.418;7.286;2023-08-07T12:12:02;6.45;;;1.70;;
55539;SDS011;41384;51.418;7.286;2023-08-07T12:14:28;3.67;;;1.27;;
55539;SDS011;41384;51.418;7.286;2023-08-07T12:16:54;4.97;;;1.35;;
55539;SDS011;41384;51.418;7.286;2023-08-07T12:19:19;5.22;;;1.20;;
55539;SDS011;41384;51.418;7.286;2023-08-07T12:21:45;6.18;;;1.35;;
55539;SDS011;41384;51.418;7.286;2023-08-07T12:24:12;4.72;;;1.33;;
55539;SDS011;41384;51.418;7.286;2023-08-07T12:26:37;3.42;;;1.52;;
55539;SDS011;41384;51.418;7.286;2023-08-07T12:29:03;5.20;;;1.42;;
55539;SDS011;41384;51.418;7.286;2023-08-07T12:31:28;4.03;;;1.50;;
55539;SDS011;41384;51.418;7.286;2023-08-07T12:33:54;5.80;;;1.85;;
55539;SDS011;41384;51.418;7.286;2023-08-07T12:36:19;6.88;;;1.77;;
55539;SDS011;41384;51.418;7.286;2023-08-07T12:38:44;5.45;;;1.60;;
55539;SDS011;41384;51.418;7.286;2023-08-07T12:41:10;3.80;;;1.75;;
55539;SDS011;41384;51.418;7.286;2023-08-07T12:43:35;5.38;;;1.35;;
55539;SDS011;41384;51.418;7.286;2023-08-07T12:46:01;5.25;;;1.13;;
55539;SDS011;41384;51.418;7.286;2023-08-07T12:48:26;3.17;;;1.10;;
55539;SDS011;41384;51.418;7.286;2023-08-07T12:50:53;3.38;;;1.50;;
55539;SDS011;41384;51.418;7.286;2023-08-07T12:53:18;4.65;;;1.42;;
55539;SDS011;41384;51.418;7.286;2023-08-07T12:55:44;5.05;;;1.40;;
55539;SDS011;41384;51.418;7.286;2023-08-07T12:58:10;2.80;;;1.40;;
55539;SDS011;41384;51.418;7.286;2023-08-07T13:00:35;3.25;;;1.08;;
55539;SDS011;41384;51.418;7.286;2023-08-07T13:03:01;3.30;;;1.40;;
55539;SDS011;41384;51.418;7.286;2023-08-07T13:05:27;4.78;;;1.48;;
55539;SDS011;41384;51.418;7.286;2023-08-07T13:07:54;1.83;;;1.35;;
55539;SDS011;41384;51.418;7.286;2023-08-07T13:10:20;5.03;;;1.30;;
55539;SDS011;41384;51.418;7.286;2023-08-07T13:12:47;7.13;;;1.40;;
55539;SDS011;41384;51.418;7.286;2023-08-07T13:15:14;5.57;;;1.63;;
55539;SDS011;41384;51.418;7.286;2023-08-07T13:17:40;8.48;;;1.27;;
55539;SDS011;41384;51.418;7.286;2023-08-07T13:20:07;5.18;;;1.50;;
55539;SDS011;41384;51.418;7.286;2023-08-07T13:22:36;3.58;;;1.35;;
55539;SDS011;41384;51.418;7.286;2023-08-07T13:25:02;3.60;;;1.15;;
55539;SDS011;41384;51.418;7.286;2023-08-07T13:27:29;4.53;;;1.40;;
55539;SDS011;41384;51.418;7.286;2023-08-07T13:29:55;4.75;;;1.40;;
55539;SDS011;41384;51.418;7.286;2023-08-07T13:32:20;9.18;;;1.75;;
55539;SDS011;41384;51.418;7.286;2023-08-07T13:34:46;5.63;;;1.13;;
55539;SDS011;41384;51.418;7.286;2023-08-07T13:37:11;3.05;;;1.20;;
55539;SDS011;41384;51.418;7.286;2023-08-07T13:39:37;4.55;;;1.20;;
55539;SDS011;41384;51.418;7.286;2023-08-07T13:42:02;2.65;;;1.33;;
55539;SDS011;41384;51.418;7.286;2023-08-07T13:44:28;4.97;;;1.30;;
55539;SDS011;41384;51.418;7.286;2023-08-07T13:46:54;14.50;;;1.60;;
55539;SDS011;41384;51.418;7.286;2023-08-07T13:49:20;6.55;;;1.83;;
55539;SDS011;41384;51.418;7.286;2023-08-07T13:51:46;2.65;;;0.98;;
55539;SDS011;41384;51.418;7.286;2023-08-07T13:54:12;3.10;;;1.17;;
55539;SDS011;41384;51.418;7.286;2023-08-07T13:56:37;4.65;;;1.13;;
55539;SDS011;41384;51.418;7.286;2023-08-07T13:59:03;3.20;;;1.25;;
55539;SDS011;41384;51.418;7.286;2023-08-07T14:01:28;3.97;;;1.25;;
55539;SDS011;41384;51.418;7.286;2023-08-07T14:03:53;7.25;;;1.25;;
55539;SDS011;41384;51.418;7.286;2023-08-07T14:06:19;5.03;;;1.20;;
55539;SDS011;41384;51.418;7.286;2023-08-07T14:08:44;3.38;;;1.38;;
55539;SDS011;41384;51.418;7.286;2023-08-07T14:11:10;5.15;;;1.35;;
55539;SDS011;41384;51.418;7.286;2023-08-07T14:13:36;5.03;;;1.40;;
55539;SDS011;41384;51.418;7.286;2023-08-07T14:16:02;3.92;;;1.15;;
55539;SDS011;41384;51.418;7.286;2023-08-07T14:18:27;5.97;;;1.10;;
55539;SDS011;41384;51.418;7.286;2023-08-07T14:20:53;3.45;;;1.30;;
55539;SDS011;41384;51.418;7.286;2023-08-07T14:23:18;2.88;;;0.80;;
55539;SDS011;41384;51.418;7.286;2023-08-07T14:25:44;3.05;;;1.25;;
55539;SDS011;41384;51.418;7.286;2023-08-07T14:28:10;4.25;;;1.23;;
55539;SDS011;41384;51.418;7.286;2023-08-07T14:30:35;9.50;;;4.53;;
55539;SDS011;41384;51.418;7.286;2023-08-07T14:33:00;5.47;;;2.88;;
55539;SDS011;41384;51.418;7.286;2023-08-07T14:35:25;4.80;;;2.38;;
55539;SDS011;41384;51.418;7.286;2023-08-07T14:37:51;8.60;;;1.58;;
55539;SDS011;41384;51.418;7.286;2023-08-07T14:40:16;4.65;;;1.25;;
55539;SDS011;41384;51.418;7.286;2023-08-07T14:42:41;5.85;;;1.90;;
55539;SDS011;41384;51.418;7.286;2023-08-07T14:45:07;15.73;;;6.90;;
55539;SDS011;41384;51.418;7.286;2023-08-07T14:47:32;6.65;;;3.17;;
55539;SDS011;41384;51.418;7.286;2023-08-07T14:49:58;8.23;;;2.95;;